createdAt,value
2017-09-08T00:00:45.011Z,9.90
2017-09-08T00:03:12.445Z,9.90
2017-09-08T00:05:39.880Z,9.90
2017-09-08T00:08:07.311Z,9.90
2017-09-08T00:10:34.743Z,9.80
2017-09-08T00:13:02.184Z,9.80
2017-09-08T00:15:31.192Z,9.80
2017-09-08T00:17:58.634Z,9.80
2017-09-08T00:20:26.060Z,9.80
2017-09-08T00:22:53.492Z,9.80
2017-09-08T00:25:20.919Z,9.90
2017-09-08T00:27:48.355Z,9.80
2017-09-08T00:30:16.560Z,9.80
2017-09-08T00:32:43.995Z,9.80
2017-09-08T00:35:12.202Z,9.80
2017-09-08T00:37:39.623Z,9.80
2017-09-08T00:40:07.821Z,9.80
2017-09-08T00:42:35.250Z,9.80
2017-09-08T00:45:03.450Z,9.70
2017-09-08T00:47:30.879Z,9.70
2017-09-08T00:49:59.081Z,9.60
2017-09-08T00:52:26.519Z,9.60
2017-09-08T00:54:54.721Z,9.50
2017-09-08T00:57:22.157Z,9.50
2017-09-08T00:59:50.348Z,9.40
2017-09-08T01:02:17.784Z,9.40
2017-09-08T01:04:45.980Z,9.50
2017-09-08T01:07:13.416Z,9.50
2017-09-08T01:09:41.611Z,9.50
2017-09-08T01:12:09.047Z,9.50
2017-09-08T01:14:37.247Z,9.40
2017-09-08T01:17:04.680Z,9.40
2017-09-08T01:19:32.880Z,9.30
2017-09-08T01:22:00.308Z,9.30
2017-09-08T01:24:28.512Z,9.20
2017-09-08T01:26:55.942Z,9.20
2017-09-08T01:29:24.143Z,9.20
2017-09-08T01:31:51.571Z,9.20
2017-09-08T01:34:18.999Z,9.20
2017-09-08T01:36:46.428Z,9.20
2017-09-08T01:39:13.862Z,9.20
2017-09-08T01:41:41.296Z,9.10
2017-09-08T01:44:08.735Z,9.10
2017-09-08T01:46:36.162Z,9.10
2017-09-08T01:49:03.604Z,9.10
2017-09-08T01:51:31.035Z,9.00
2017-09-08T01:53:59.242Z,9.00
2017-09-08T01:56:26.672Z,9.00
2017-09-08T01:58:54.881Z,9.00
2017-09-08T02:01:22.312Z,9.00
2017-09-08T02:03:50.507Z,9.10
2017-09-08T02:06:17.936Z,9.10
2017-09-08T02:08:46.146Z,9.20
2017-09-08T02:11:13.576Z,9.20
2017-09-08T02:13:41.779Z,9.20
2017-09-08T02:16:09.216Z,9.10
2017-09-08T02:18:36.652Z,9.10
2017-09-08T02:21:04.089Z,9.10
2017-09-08T02:23:31.517Z,9.10
2017-09-08T02:25:58.953Z,9.00
2017-09-08T02:28:26.384Z,9.00
2017-09-08T02:30:54.595Z,8.90
2017-09-08T02:33:22.020Z,8.80
2017-09-08T02:35:50.223Z,8.80
2017-09-08T02:38:17.655Z,8.80
2017-09-08T02:40:45.870Z,8.80
2017-09-08T02:43:13.302Z,8.70
2017-09-08T02:45:40.735Z,8.70
2017-09-08T02:48:08.164Z,8.70
2017-09-08T02:50:35.598Z,8.70
2017-09-08T02:53:03.031Z,8.70
2017-09-08T02:55:31.239Z,8.70
2017-09-08T02:57:58.680Z,8.70
2017-09-08T03:00:26.111Z,8.80
2017-09-08T03:02:54.300Z,9.00
2017-09-08T03:05:21.736Z,8.90
2017-09-08T03:07:49.935Z,9.00
2017-09-08T03:10:17.379Z,8.90
2017-09-08T03:12:45.580Z,8.90
2017-09-08T03:15:13.012Z,8.80
2017-09-08T03:17:41.207Z,8.80
2017-09-08T03:20:08.667Z,8.80
2017-09-08T03:22:36.099Z,8.90
2017-09-08T03:25:04.299Z,8.90
2017-09-08T03:27:31.732Z,8.90
2017-09-08T03:29:59.928Z,8.80
2017-09-08T03:32:27.355Z,8.80
2017-09-08T03:34:54.783Z,8.80
2017-09-08T03:37:22.224Z,8.70
2017-09-08T03:39:49.659Z,8.70
2017-09-08T03:42:17.087Z,8.70
2017-09-08T03:44:45.282Z,8.70
2017-09-08T03:47:12.722Z,8.60
2017-09-08T03:49:40.147Z,8.70
2017-09-08T03:52:07.575Z,8.60
2017-09-08T03:54:35.003Z,8.60
2017-09-08T03:57:03.203Z,8.70
2017-09-08T03:59:30.635Z,8.70
2017-09-08T04:01:58.833Z,8.70
2017-09-08T04:04:26.268Z,8.60
2017-09-08T04:06:54.467Z,8.60
2017-09-08T04:09:21.895Z,8.60
2017-09-08T04:11:50.107Z,8.50
2017-09-08T04:14:17.533Z,8.50
2017-09-08T04:16:45.740Z,8.40
2017-09-08T04:19:13.173Z,8.40
2017-09-08T04:21:41.363Z,8.50
2017-09-08T04:24:08.799Z,8.50
2017-09-08T04:26:36.999Z,8.50
2017-09-08T04:29:04.445Z,8.50
2017-09-08T04:31:32.640Z,8.60
2017-09-08T04:34:00.066Z,8.60
2017-09-08T04:36:28.264Z,8.70
2017-09-08T04:38:55.700Z,8.70
2017-09-08T04:41:23.892Z,8.70
2017-09-08T04:43:51.327Z,8.70
2017-09-08T04:46:20.460Z,8.60
2017-09-08T04:48:47.899Z,8.60
2017-09-08T04:51:15.323Z,8.60
2017-09-08T04:53:42.756Z,8.60
2017-09-08T04:56:10.184Z,8.60
2017-09-08T04:58:37.627Z,8.60
2017-09-08T05:01:05.823Z,8.70
2017-09-08T05:03:33.259Z,8.70
2017-09-08T05:06:00.696Z,8.70
2017-09-08T05:08:28.132Z,8.80
2017-09-08T05:10:55.560Z,8.90
2017-09-08T05:13:22.999Z,9.00
2017-09-08T05:15:50.427Z,9.00
2017-09-08T05:18:18.636Z,9.10
2017-09-08T05:20:46.069Z,9.10
2017-09-08T05:23:13.521Z,9.20
2017-09-08T05:25:41.715Z,9.40
2017-09-08T05:28:09.143Z,9.40
2017-09-08T05:30:36.586Z,9.50
2017-09-08T05:33:04.002Z,9.60
2017-09-08T05:35:31.426Z,9.70
2017-09-08T05:37:59.659Z,9.90
2017-09-08T05:40:27.056Z,9.90
2017-09-08T05:42:55.259Z,10.10
2017-09-08T05:45:22.691Z,10.10
2017-09-08T05:47:50.896Z,10.40
2017-09-08T05:50:18.326Z,10.40
2017-09-08T05:52:46.528Z,10.60
2017-09-08T05:55:13.961Z,10.60
2017-09-08T05:57:42.155Z,10.80
2017-09-08T06:00:09.599Z,10.80
2017-09-08T06:02:37.037Z,10.90
2017-09-08T06:05:04.466Z,11.10
2017-09-08T06:07:31.909Z,11.20
2017-09-08T06:09:59.347Z,11.20
2017-09-08T06:12:27.545Z,11.50
2017-09-08T06:14:54.985Z,11.50
2017-09-08T06:17:23.187Z,11.90
2017-09-08T06:19:50.622Z,11.90
2017-09-08T06:22:18.052Z,12.40
2017-09-08T06:24:45.510Z,12.90
2017-09-08T06:27:13.723Z,14.60
2017-09-08T06:29:41.163Z,14.50
2017-09-08T06:32:09.376Z,16.00
2017-09-08T06:34:36.823Z,16.00
2017-09-08T06:37:04.277Z,16.40
2017-09-08T06:39:31.710Z,16.50
2017-09-08T06:41:59.153Z,16.90
2017-09-08T06:44:26.583Z,17.10
2017-09-08T06:46:54.073Z,17.10
2017-09-08T06:49:21.506Z,17.30
2017-09-08T06:51:48.956Z,17.60
2017-09-08T06:54:16.393Z,17.60
2017-09-08T06:56:43.828Z,17.70
2017-09-08T06:59:11.259Z,18.20
2017-09-08T07:01:38.704Z,18.10
2017-09-08T07:04:06.143Z,18.00
2017-09-08T07:06:33.588Z,18.10
2017-09-08T07:09:01.017Z,18.30
2017-09-08T07:11:28.455Z,18.50
2017-09-08T07:13:55.892Z,18.20
2017-09-08T07:16:23.339Z,18.20
2017-09-08T07:18:50.775Z,17.80
2017-09-08T07:21:18.235Z,18.10
2017-09-08T07:23:45.664Z,18.50
2017-09-08T07:26:13.099Z,18.50
2017-09-08T07:28:41.310Z,18.70
2017-09-08T07:31:08.739Z,18.70
2017-09-08T07:33:36.984Z,19.10
2017-09-08T07:36:04.405Z,19.10
2017-09-08T07:38:31.835Z,19.50
2017-09-08T07:41:00.031Z,19.80
2017-09-08T07:43:27.493Z,19.80
2017-09-08T07:45:54.925Z,19.90
2017-09-08T07:48:23.120Z,20.20
2017-09-08T07:50:50.555Z,20.10
2017-09-08T07:53:18.764Z,20.30
2017-09-08T07:55:46.197Z,20.30
2017-09-08T07:58:14.400Z,20.60
2017-09-08T08:00:41.827Z,20.50
2017-09-08T08:03:09.275Z,20.40
2017-09-08T08:05:37.476Z,20.40
2017-09-08T08:08:04.907Z,20.40
2017-09-08T08:10:33.108Z,20.10
2017-09-08T08:13:00.591Z,20.10
2017-09-08T08:15:28.029Z,19.80
2017-09-08T08:17:55.462Z,19.50
2017-09-08T08:20:23.683Z,18.90
2017-09-08T08:22:51.156Z,18.90
2017-09-08T08:25:18.599Z,18.70
2017-09-08T08:27:46.051Z,18.40
2017-09-08T08:30:13.498Z,18.20
2017-09-08T08:32:40.932Z,18.10
2017-09-08T08:35:09.142Z,17.90
2017-09-08T08:37:36.575Z,17.80
2017-09-08T08:40:04.023Z,17.90
2017-09-08T08:42:31.458Z,18.00
2017-09-08T08:44:58.894Z,18.10
2017-09-08T08:47:26.331Z,18.20
2017-09-08T08:49:53.771Z,18.20
2017-09-08T08:52:21.211Z,18.20
2017-09-08T08:54:48.656Z,18.10
2017-09-08T08:57:16.091Z,18.00
2017-09-08T08:59:43.532Z,18.00
2017-09-08T09:02:10.968Z,18.20
2017-09-08T09:04:38.408Z,18.30
2017-09-08T09:07:05.848Z,18.40
2017-09-08T09:09:34.060Z,18.40
2017-09-08T09:12:01.495Z,18.30
2017-09-08T09:14:28.940Z,18.40
2017-09-08T09:16:56.395Z,18.70
2017-09-08T09:19:23.836Z,18.80
2017-09-08T09:21:51.268Z,18.60
2017-09-08T09:24:18.715Z,18.40
2017-09-08T09:26:46.155Z,18.50
2017-09-08T09:29:13.605Z,18.70
2017-09-08T09:31:41.044Z,19.00
2017-09-08T09:34:08.484Z,19.20
2017-09-08T09:36:35.928Z,19.30
2017-09-08T09:39:03.359Z,19.30
2017-09-08T09:41:30.810Z,19.30
2017-09-08T09:43:58.247Z,19.20
2017-09-08T09:46:25.690Z,18.90
2017-09-08T09:48:53.136Z,18.90
2017-09-08T09:51:21.351Z,19.40
2017-09-08T09:53:48.788Z,19.40
2017-09-08T09:56:16.991Z,19.70
2017-09-08T09:58:44.427Z,19.70
2017-09-08T10:01:11.868Z,19.70
2017-09-08T10:03:39.306Z,20.00
2017-09-08T10:06:06.750Z,20.20
2017-09-08T10:08:34.195Z,20.30
2017-09-08T10:11:01.636Z,19.90
2017-09-08T10:13:29.072Z,19.80
2017-09-08T10:15:56.516Z,19.90
2017-09-08T10:18:23.956Z,19.90
2017-09-08T10:20:51.404Z,20.10
2017-09-08T10:23:18.843Z,20.40
2017-09-08T10:25:46.288Z,20.10
2017-09-08T10:28:13.732Z,20.10
2017-09-08T10:30:41.187Z,20.30
2017-09-08T10:33:08.632Z,20.40
2017-09-08T10:35:36.063Z,20.70
2017-09-08T10:38:03.515Z,21.00
2017-09-08T10:40:30.952Z,21.30
2017-09-08T10:42:58.388Z,20.90
2017-09-08T10:45:25.824Z,21.10
2017-09-08T10:47:53.262Z,21.40
2017-09-08T10:50:21.464Z,21.30
2017-09-08T10:52:54.712Z,21.30
2017-09-08T10:55:22.142Z,21.00
2017-09-08T10:57:49.591Z,20.70
2017-09-08T11:00:17.036Z,20.90
2017-09-08T11:02:44.480Z,21.00
2017-09-08T11:05:11.926Z,21.20
2017-09-08T11:07:40.128Z,20.80
2017-09-08T11:10:07.559Z,20.80
2017-09-08T11:12:35.771Z,21.30
2017-09-08T11:15:03.209Z,21.30
2017-09-08T11:17:30.648Z,21.80
2017-09-08T11:19:58.852Z,21.70
2017-09-08T11:22:26.290Z,21.70
2017-09-08T11:24:53.732Z,21.60
2017-09-08T11:27:21.934Z,21.90
2017-09-08T11:29:49.380Z,21.90
2017-09-08T11:32:17.593Z,21.20
2017-09-08T11:34:50.731Z,21.20
2017-09-08T11:37:18.944Z,20.30
2017-09-08T11:39:46.381Z,20.30
2017-09-08T11:42:13.823Z,20.40
2017-09-08T11:44:41.256Z,20.70
2017-09-08T11:47:08.700Z,21.00
2017-09-08T11:49:36.130Z,21.20
2017-09-08T11:52:03.583Z,21.10
2017-09-08T11:54:31.018Z,21.00
2017-09-08T11:56:58.459Z,20.80
2017-09-08T11:59:25.894Z,20.80
2017-09-08T12:01:53.337Z,20.60
2017-09-08T12:04:20.776Z,20.70
2017-09-08T12:06:48.224Z,20.70
2017-09-08T12:09:15.656Z,20.70
2017-09-08T12:11:43.106Z,20.80
2017-09-08T12:14:10.544Z,21.00
2017-09-08T12:16:37.988Z,20.90
2017-09-08T12:19:05.423Z,21.10
2017-09-08T12:21:33.640Z,20.50
2017-09-08T12:24:01.840Z,20.40
2017-09-08T12:26:29.295Z,20.40
2017-09-08T12:28:56.740Z,20.40
2017-09-08T12:31:24.172Z,20.50
2017-09-08T12:33:51.614Z,20.50
2017-09-08T12:36:19.043Z,20.60
2017-09-08T12:38:47.251Z,20.90
2017-09-08T12:41:14.701Z,20.90
2017-09-08T12:43:42.906Z,21.00
2017-09-08T12:46:10.343Z,21.00
2017-09-08T12:48:37.793Z,20.80
2017-09-08T12:51:05.229Z,20.60
2017-09-08T12:53:32.676Z,19.90
2017-09-08T12:56:00.880Z,19.50
2017-09-08T12:58:28.333Z,19.50
2017-09-08T13:00:55.761Z,19.30
2017-09-08T13:03:23.205Z,19.20
2017-09-08T13:05:50.635Z,19.50
2017-09-08T13:08:18.075Z,19.80
2017-09-08T13:10:45.513Z,20.00
2017-09-08T13:13:12.959Z,20.10
2017-09-08T13:15:41.176Z,20.30
2017-09-08T13:18:08.618Z,20.30
2017-09-08T13:20:36.051Z,20.20
2017-09-08T13:23:04.256Z,20.10
2017-09-08T13:25:31.691Z,20.10
2017-09-08T13:27:59.132Z,20.30
2017-09-08T13:30:27.332Z,20.40
2017-09-08T13:32:54.787Z,20.40
2017-09-08T13:35:22.224Z,20.50
2017-09-08T13:37:50.446Z,20.60
2017-09-08T13:40:17.871Z,20.60
2017-09-08T13:42:45.304Z,20.70
2017-09-08T13:45:12.747Z,20.60
2017-09-08T13:47:40.185Z,20.70
2017-09-08T13:50:07.633Z,20.30
2017-09-08T13:52:35.071Z,20.40
2017-09-08T13:55:02.506Z,20.40
2017-09-08T13:57:29.950Z,20.10
2017-09-08T13:59:57.389Z,20.30
2017-09-08T14:02:24.827Z,20.30
2017-09-08T14:04:52.273Z,20.40
2017-09-08T14:07:19.715Z,20.50
2017-09-08T14:09:47.176Z,20.60
2017-09-08T14:12:14.601Z,20.60
2017-09-08T14:14:42.040Z,20.70
2017-09-08T14:17:09.479Z,20.40
2017-09-08T14:19:36.919Z,20.10
2017-09-08T14:22:04.348Z,20.10
2017-09-08T14:24:32.588Z,20.20
2017-09-08T14:27:00.036Z,20.20
2017-09-08T14:29:27.472Z,20.20
2017-09-08T14:31:54.911Z,20.30
2017-09-08T14:34:22.354Z,20.40
2017-09-08T14:36:50.564Z,20.10
2017-09-08T14:39:18.000Z,20.10
2017-09-08T14:41:45.445Z,20.10
2017-09-08T14:44:13.643Z,19.90
2017-09-08T14:46:41.088Z,19.90
2017-09-08T14:49:09.283Z,20.10
2017-09-08T14:51:36.729Z,20.10
2017-09-08T14:54:04.173Z,19.90
2017-09-08T14:56:32.368Z,20.00
2017-09-08T14:58:59.808Z,19.90
2017-09-08T15:01:27.243Z,19.90
2017-09-08T15:03:54.683Z,19.80
2017-09-08T15:06:22.132Z,19.70
2017-09-08T15:08:49.576Z,19.70
2017-09-08T15:11:17.011Z,19.80
2017-09-08T15:13:44.452Z,19.80
2017-09-08T15:16:11.888Z,19.70
2017-09-08T15:18:39.323Z,19.80
2017-09-08T15:21:06.780Z,19.70
2017-09-08T15:23:34.223Z,19.70
2017-09-08T15:26:01.655Z,19.60
2017-09-08T15:28:29.116Z,19.60
2017-09-08T15:30:56.648Z,19.60
2017-09-08T15:33:24.928Z,19.60
2017-09-08T15:35:52.679Z,19.60
2017-09-08T15:38:20.376Z,19.80
2017-09-08T15:40:47.925Z,19.90
2017-09-08T15:43:15.395Z,20.10
2017-09-08T15:45:43.181Z,20.10
2017-09-08T15:48:10.670Z,19.90
2017-09-08T15:50:38.265Z,19.70
2017-09-08T15:53:05.837Z,19.80
2017-09-08T15:55:33.314Z,19.60
2017-09-08T15:58:00.942Z,19.50
2017-09-08T16:00:28.493Z,19.40
2017-09-08T16:02:56.170Z,19.30
2017-09-08T16:05:23.708Z,19.30
2017-09-08T16:10:25.086Z,19.20
2017-09-08T16:12:52.591Z,19.10
2017-09-08T16:15:20.107Z,18.90
2017-09-08T16:17:48.391Z,18.80
2017-09-08T16:20:17.057Z,18.70
2017-09-08T16:22:44.777Z,18.80
2017-09-08T16:25:12.437Z,18.70
2017-09-08T16:27:39.960Z,18.70
2017-09-08T16:30:07.567Z,18.60
2017-09-08T16:32:35.133Z,18.60
2017-09-08T16:35:02.671Z,18.50
2017-09-08T16:37:30.126Z,18.40
2017-09-08T16:39:57.867Z,18.20
2017-09-08T16:42:25.462Z,18.10
2017-09-08T16:44:52.951Z,18.00
2017-09-08T16:47:20.416Z,17.90
2017-09-08T16:49:47.931Z,17.80
2017-09-08T16:52:15.704Z,17.60
2017-09-08T16:54:43.162Z,17.50
2017-09-08T16:57:10.685Z,17.40
2017-09-08T16:59:38.299Z,17.30
2017-09-08T17:02:05.822Z,17.20
2017-09-08T17:04:34.135Z,16.90
2017-09-08T17:07:01.605Z,16.90
2017-09-08T17:09:29.217Z,16.90
2017-09-08T17:11:56.666Z,16.80
2017-09-08T17:14:24.949Z,16.60
2017-09-08T17:16:52.383Z,16.60
2017-09-08T17:19:19.871Z,16.50
2017-09-08T17:21:48.076Z,16.40
2017-09-08T17:24:15.564Z,16.40
2017-09-08T17:26:43.168Z,16.20
2017-09-08T17:29:10.750Z,16.20
2017-09-08T17:31:38.311Z,16.10
2017-09-08T17:34:05.765Z,16.00
2017-09-08T17:36:33.431Z,15.80
2017-09-08T17:39:01.016Z,15.70
2017-09-08T17:41:28.653Z,15.50
2017-09-08T17:43:56.296Z,15.40
2017-09-08T17:46:23.780Z,15.40
2017-09-08T17:48:51.311Z,15.30
2017-09-08T17:51:19.579Z,15.20
2017-09-08T17:53:47.803Z,15.10
2017-09-08T17:56:15.284Z,15.00
2017-09-08T17:58:42.722Z,14.90
2017-09-08T18:01:10.187Z,14.90
2017-09-08T18:03:37.645Z,14.80
2017-09-08T18:06:05.086Z,14.70
2017-09-08T18:08:32.537Z,14.60
2017-09-08T18:11:00.026Z,14.60
2017-09-08T18:13:27.456Z,14.50
2017-09-08T18:15:54.933Z,14.50
2017-09-08T18:18:22.385Z,14.40
2017-09-08T18:20:49.829Z,14.30
2017-09-08T18:23:17.280Z,14.30
2017-09-08T18:25:44.725Z,14.20
2017-09-08T18:28:12.167Z,14.10
2017-09-08T18:30:40.374Z,14.00
2017-09-08T18:33:07.816Z,14.00
2017-09-08T18:35:35.248Z,14.00
2017-09-08T18:38:03.463Z,14.00
2017-09-08T18:40:30.909Z,14.00
2017-09-08T18:42:58.348Z,14.00
2017-09-08T18:45:26.550Z,14.00
2017-09-08T18:47:53.997Z,14.00
2017-09-08T18:50:21.441Z,14.00
2017-09-08T18:52:49.650Z,14.00
2017-09-08T18:55:17.102Z,13.90
2017-09-08T18:57:44.546Z,13.90
2017-09-08T19:00:11.984Z,13.90
2017-09-08T19:02:40.199Z,13.80
2017-09-08T19:05:07.649Z,13.80
2017-09-08T19:07:35.095Z,13.80
2017-09-08T19:10:02.542Z,13.80
2017-09-08T19:12:30.753Z,13.70
2017-09-08T19:14:58.186Z,13.60
2017-09-08T19:17:25.628Z,13.60
2017-09-08T19:19:53.836Z,13.50
2017-09-08T19:22:21.268Z,13.50
2017-09-08T19:24:48.719Z,13.50
2017-09-08T19:27:16.918Z,13.40
2017-09-08T19:29:44.368Z,13.30
2017-09-08T19:32:11.803Z,13.30
2017-09-08T19:34:40.012Z,13.20
2017-09-08T19:37:07.460Z,13.10
2017-09-08T19:39:34.898Z,13.10
2017-09-08T19:42:03.103Z,13.10
2017-09-08T19:44:30.539Z,13.00
2017-09-08T19:46:57.980Z,13.00
2017-09-08T19:49:26.198Z,13.00
2017-09-08T19:51:53.641Z,13.00
2017-09-08T19:54:21.094Z,13.00
2017-09-08T19:56:49.304Z,12.90
2017-09-08T19:59:16.751Z,12.90
2017-09-08T20:01:44.206Z,12.90
2017-09-08T20:04:11.661Z,12.80
2017-09-08T20:06:39.097Z,12.80
2017-09-08T20:09:07.327Z,12.70
2017-09-08T20:11:35.546Z,12.70
2017-09-08T20:14:02.983Z,12.70
2017-09-08T20:16:30.707Z,12.70
2017-09-08T20:18:58.162Z,12.70
2017-09-08T20:21:25.640Z,12.60
2017-09-08T20:23:53.081Z,12.60
2017-09-08T20:26:20.531Z,12.60
2017-09-08T20:28:47.978Z,12.60
2017-09-08T20:31:15.416Z,12.50
2017-09-08T20:33:42.860Z,12.50
2017-09-08T20:36:10.328Z,12.50
2017-09-08T20:38:37.770Z,12.50
2017-09-08T20:41:05.228Z,12.50
2017-09-08T20:43:33.475Z,12.40
2017-09-08T20:46:00.918Z,12.40
2017-09-08T20:48:28.435Z,12.50
2017-09-08T20:50:55.886Z,12.50
2017-09-08T20:53:23.328Z,12.50
2017-09-08T20:55:50.789Z,12.50
2017-09-08T20:58:18.252Z,12.50
2017-09-08T21:00:45.721Z,12.50
2017-09-08T21:03:13.218Z,12.50
2017-09-08T21:05:40.684Z,12.50
2017-09-08T21:08:08.175Z,12.50
2017-09-08T21:10:36.405Z,12.40
2017-09-08T21:13:03.913Z,12.40
2017-09-08T21:15:31.396Z,12.40
2017-09-08T21:17:58.856Z,12.30
2017-09-08T21:20:26.302Z,12.30
2017-09-08T21:22:54.540Z,12.20
2017-09-08T21:25:21.993Z,12.20
2017-09-08T21:27:49.674Z,12.20
2017-09-08T21:30:17.946Z,12.10
2017-09-08T21:32:45.459Z,12.10
2017-09-08T21:35:13.086Z,12.10
2017-09-08T21:37:41.360Z,12.00
2017-09-08T21:40:08.889Z,12.00
2017-09-08T21:42:36.368Z,11.90
2017-09-08T21:45:04.576Z,11.90
2017-09-08T21:47:32.087Z,11.90
2017-09-08T21:49:59.559Z,12.00
2017-09-08T21:52:27.816Z,12.00
2017-09-08T21:54:55.239Z,12.00
2017-09-08T21:57:22.696Z,12.00
2017-09-08T21:59:50.168Z,12.00
2017-09-08T22:02:17.712Z,12.00
2017-09-08T22:04:45.151Z,12.00
2017-09-08T22:07:13.371Z,11.90
2017-09-08T22:09:40.845Z,11.90
2017-09-08T22:12:08.552Z,11.90
2017-09-08T22:14:36.750Z,11.90
2017-09-08T22:17:04.343Z,11.90
2017-09-08T22:19:31.799Z,11.80
2017-09-08T22:21:59.297Z,11.80
2017-09-08T22:24:26.826Z,11.80
2017-09-08T22:26:54.533Z,11.70
2017-09-08T22:29:22.812Z,11.60
2017-09-08T22:31:51.015Z,11.50
2017-09-08T22:34:18.629Z,11.50
2017-09-08T22:36:46.943Z,11.50
2017-09-08T22:39:14.415Z,11.40
2017-09-08T22:41:41.946Z,11.50
2017-09-08T22:44:09.509Z,11.50
2017-09-08T22:46:37.046Z,11.50
2017-09-08T22:49:04.632Z,11.50
2017-09-08T22:51:33.035Z,11.40
2017-09-08T22:54:00.567Z,11.40
2017-09-08T22:56:28.134Z,11.30
2017-09-08T22:58:55.900Z,11.40
2017-09-08T23:01:23.511Z,11.40
2017-09-08T23:03:51.307Z,11.40
2017-09-08T23:06:19.678Z,11.30
2017-09-08T23:08:47.274Z,11.30
2017-09-08T23:11:15.036Z,11.20
2017-09-08T23:13:42.559Z,11.20
2017-09-08T23:16:10.238Z,11.20
2017-09-08T23:18:38.643Z,11.20
2017-09-08T23:21:06.144Z,11.20
2017-09-08T23:23:33.768Z,11.10
2017-09-08T23:26:01.356Z,11.10
2017-09-08T23:28:28.919Z,11.20
2017-09-08T23:30:56.665Z,11.20
2017-09-08T23:33:24.190Z,11.20
2017-09-08T23:35:51.828Z,11.10
2017-09-08T23:38:19.298Z,11.10
2017-09-08T23:40:47.817Z,10.90
2017-09-08T23:43:15.673Z,10.90
2017-09-08T23:45:43.350Z,10.90
2017-09-08T23:48:10.845Z,10.80
2017-09-08T23:50:38.316Z,10.80
2017-09-08T23:53:05.830Z,10.90
2017-09-08T23:55:33.269Z,10.80
2017-09-08T23:58:00.827Z,10.80
